createdAt,value
2023-04-04T00:01:56.024Z,3.17
2023-04-04T00:04:23.670Z,3.11
2023-04-04T00:06:51.898Z,3.26
2023-04-04T00:09:19.249Z,3.29
2023-04-04T00:11:47.884Z,3.24
2023-04-04T00:14:15.158Z,3.25
2023-04-04T00:16:42.419Z,3.09
2023-04-04T00:19:11.630Z,3.19
2023-04-04T00:21:38.891Z,3.11
2023-04-04T00:24:06.694Z,3.29
2023-04-04T00:26:34.504Z,3.39
2023-04-04T00:29:03.218Z,3.18
2023-04-04T00:31:30.589Z,3.20
2023-04-04T00:33:57.864Z,3.13
2023-04-04T00:36:25.268Z,3.26
2023-04-04T00:38:52.513Z,3.26
2023-04-04T00:41:19.814Z,3.25
2023-04-04T00:43:47.669Z,3.23
2023-04-04T00:46:18.807Z,3.24
2023-04-04T00:48:46.513Z,3.13
2023-04-04T00:51:14.000Z,3.09
2023-04-04T00:53:41.890Z,3.09
2023-04-04T00:56:10.105Z,3.09
2023-04-04T00:58:37.532Z,3.12
2023-04-04T01:01:04.953Z,3.01
2023-04-04T01:03:33.950Z,2.88
2023-04-04T01:06:02.516Z,2.86
2023-04-04T01:08:30.649Z,2.83
2023-04-04T01:10:58.365Z,2.80
2023-04-04T01:13:26.670Z,2.81
2023-04-04T01:15:54.033Z,2.89
2023-04-04T01:18:22.446Z,3.10
2023-04-04T01:20:55.558Z,3.19
2023-04-04T01:23:25.311Z,3.04
2023-04-04T01:26:02.580Z,3.14
2023-04-04T01:28:29.845Z,3.11
2023-04-04T01:30:58.410Z,2.99
2023-04-04T01:33:29.163Z,2.98
2023-04-04T01:36:02.899Z,3.00
2023-04-04T01:38:34.606Z,2.97
2023-04-04T01:41:04.250Z,3.03
2023-04-04T01:43:31.821Z,3.06
2023-04-04T01:45:59.400Z,2.97
2023-04-04T01:48:27.225Z,2.97
2023-04-04T01:50:54.603Z,2.95
2023-04-04T01:53:22.023Z,2.91
2023-04-04T01:55:49.336Z,2.64
2023-04-04T01:58:18.285Z,2.75
2023-04-04T02:00:45.825Z,2.93
2023-04-04T02:03:13.113Z,2.92
2023-04-04T02:05:40.916Z,2.72
2023-04-04T02:08:08.315Z,2.77
2023-04-04T02:10:35.836Z,2.80
2023-04-04T02:13:03.425Z,2.68
2023-04-04T02:15:32.032Z,2.70
2023-04-04T02:18:01.763Z,2.68
2023-04-04T02:20:29.692Z,2.55
2023-04-04T02:22:57.130Z,2.47
2023-04-04T02:25:25.401Z,2.67
2023-04-04T02:27:52.755Z,2.71
2023-04-04T02:30:20.371Z,2.51
2023-04-04T02:32:50.229Z,2.51
2023-04-04T02:35:17.904Z,2.68
2023-04-04T02:37:45.999Z,2.65
2023-04-04T02:40:13.848Z,2.82
2023-04-04T02:42:43.146Z,2.78
2023-04-04T02:45:11.407Z,2.51
2023-04-04T02:47:38.722Z,2.47
2023-04-04T02:50:08.402Z,2.39
2023-04-04T02:52:35.649Z,2.18
2023-04-04T02:55:02.930Z,2.16
2023-04-04T02:57:30.565Z,2.13
2023-04-04T02:59:57.842Z,2.01
2023-04-04T03:02:25.732Z,2.01
2023-04-04T03:04:53.260Z,2.16
2023-04-04T03:07:22.793Z,1.97
2023-04-04T03:09:50.135Z,1.91
2023-04-04T03:12:20.741Z,1.81
2023-04-04T03:14:48.189Z,1.82
2023-04-04T03:17:15.712Z,1.64
2023-04-04T03:19:43.078Z,1.67
2023-04-04T03:22:10.650Z,1.74
2023-04-04T03:24:40.213Z,1.96
2023-04-04T03:27:07.941Z,1.85
2023-04-04T03:29:35.333Z,1.88
2023-04-04T03:32:02.944Z,1.85
2023-04-04T03:34:31.875Z,1.95
2023-04-04T03:36:59.195Z,1.85
2023-04-04T03:39:29.408Z,1.97
2023-04-04T03:41:58.317Z,1.91
2023-04-04T03:44:25.980Z,2.02
2023-04-04T03:46:53.264Z,1.83
2023-04-04T03:49:20.522Z,1.96
2023-04-04T03:51:48.543Z,1.91
2023-04-04T03:54:15.806Z,1.91
2023-04-04T03:56:43.108Z,1.90
2023-04-04T03:59:12.549Z,2.02
2023-04-04T04:01:39.845Z,2.06
2023-04-04T04:04:07.957Z,1.99
2023-04-04T04:06:35.361Z,2.06
2023-04-04T04:09:03.256Z,2.01
2023-04-04T04:11:30.545Z,1.82
2023-04-04T04:13:58.088Z,1.93
2023-04-04T04:16:27.859Z,1.92
2023-04-04T04:18:55.416Z,2.19
2023-04-04T04:21:22.662Z,2.13
2023-04-04T04:23:49.957Z,2.02
2023-04-04T04:26:17.209Z,1.97
2023-04-04T04:28:44.505Z,2.07
2023-04-04T04:31:12.309Z,1.97
2023-04-04T04:33:41.199Z,2.08
2023-04-04T04:36:08.838Z,2.15
2023-04-04T04:38:36.686Z,1.93
2023-04-04T04:41:03.990Z,2.03
2023-04-04T04:43:31.272Z,2.00
2023-04-04T04:45:58.676Z,1.94
2023-04-04T04:48:25.951Z,2.12
2023-04-04T04:50:54.622Z,1.99
2023-04-04T04:53:22.103Z,2.00
2023-04-04T04:55:52.141Z,2.00
2023-04-04T04:58:21.219Z,2.05
2023-04-04T05:00:48.502Z,2.22
2023-04-04T05:03:15.833Z,2.21
2023-04-04T05:05:43.472Z,2.24
2023-04-04T05:08:12.096Z,2.16
2023-04-04T05:10:39.506Z,2.18
2023-04-04T05:13:06.897Z,2.14
2023-04-04T05:15:34.160Z,2.16
2023-04-04T05:18:01.888Z,2.39
2023-04-04T05:20:29.597Z,2.40
2023-04-04T05:22:56.878Z,2.37
2023-04-04T05:25:27.098Z,2.36
2023-04-04T05:27:55.679Z,2.34
2023-04-04T05:30:23.412Z,2.41
2023-04-04T05:32:51.756Z,2.50
2023-04-04T05:35:19.134Z,2.28
2023-04-04T05:37:46.525Z,2.59
2023-04-04T05:40:17.335Z,2.91
2023-04-04T05:42:54.398Z,3.03
2023-04-04T05:45:21.698Z,3.19
2023-04-04T05:47:49.052Z,3.45
2023-04-04T05:50:16.610Z,3.55
2023-04-04T05:52:43.956Z,3.37
2023-04-04T05:55:11.242Z,3.34
2023-04-04T05:57:38.507Z,3.85
2023-04-04T06:00:09.557Z,3.67
2023-04-04T06:02:36.984Z,4.21
2023-04-04T06:05:04.440Z,3.97
2023-04-04T06:07:31.695Z,4.32
2023-04-04T06:09:58.937Z,4.51
2023-04-04T06:12:26.227Z,4.71
2023-04-04T06:14:53.549Z,4.19
2023-04-04T06:17:22.143Z,4.15
2023-04-04T06:19:49.383Z,4.40
2023-04-04T06:22:17.600Z,4.55
2023-04-04T06:24:45.021Z,4.39
2023-04-04T06:27:12.541Z,4.42
2023-04-04T06:29:39.840Z,4.46
2023-04-04T06:32:07.142Z,4.50
2023-04-04T06:34:35.869Z,4.55
2023-04-04T06:37:03.493Z,4.43
2023-04-04T06:39:31.450Z,4.14
2023-04-04T06:41:58.815Z,4.07
2023-04-04T06:44:26.172Z,3.91
2023-04-04T06:46:53.753Z,4.13
2023-04-04T06:49:21.033Z,4.14
2023-04-04T06:51:50.704Z,4.20
2023-04-04T06:54:18.162Z,4.16
2023-04-04T06:56:45.754Z,4.37
2023-04-04T06:59:13.149Z,4.41
2023-04-04T07:01:40.517Z,4.24
2023-04-04T07:04:07.799Z,4.25
2023-04-04T07:06:35.055Z,4.25
2023-04-04T07:09:05.833Z,4.40
2023-04-04T07:11:34.368Z,4.41
2023-04-04T07:14:01.640Z,4.87
2023-04-04T07:16:28.941Z,5.20
2023-04-04T07:18:56.585Z,5.60
2023-04-04T07:21:24.704Z,6.06
2023-04-04T07:23:52.018Z,5.92
2023-04-04T07:26:21.317Z,5.83
2023-04-04T07:28:48.596Z,6.12
2023-04-04T07:31:15.853Z,6.71
2023-04-04T07:33:43.163Z,6.69
2023-04-04T07:36:10.833Z,6.99
2023-04-04T07:38:38.113Z,7.21
2023-04-04T07:41:05.833Z,7.42
2023-04-04T07:43:34.446Z,7.36
2023-04-04T07:46:01.928Z,7.43
2023-04-04T07:48:29.334Z,7.33
2023-04-04T07:50:56.626Z,7.00
2023-04-04T07:53:23.926Z,5.85
2023-04-04T07:55:51.223Z,6.67
2023-04-04T07:58:18.798Z,7.28
2023-04-04T08:00:47.412Z,6.46
2023-04-04T08:03:14.811Z,6.52
2023-04-04T08:05:42.267Z,6.52
2023-04-04T08:08:09.536Z,6.61
2023-04-04T08:10:37.006Z,6.59
2023-04-04T08:13:05.752Z,6.11
2023-04-04T08:15:33.035Z,6.39
2023-04-04T08:18:01.702Z,6.52
2023-04-04T08:20:29.217Z,6.90
2023-04-04T08:22:56.490Z,6.67
2023-04-04T08:25:24.008Z,6.56
2023-04-04T08:27:51.360Z,5.16
2023-04-04T08:30:18.737Z,5.05
2023-04-04T08:32:46.144Z,5.82
2023-04-04T08:35:14.999Z,6.32
2023-04-04T08:37:44.897Z,6.80
2023-04-04T08:40:12.577Z,6.28
2023-04-04T08:42:41.618Z,6.37
2023-04-04T08:45:10.397Z,6.33
2023-04-04T08:47:38.487Z,6.40
2023-04-04T08:50:07.389Z,6.37
2023-04-04T08:52:36.175Z,6.32
2023-04-04T08:55:05.202Z,6.45
2023-04-04T08:57:33.391Z,6.56
2023-04-04T09:00:02.451Z,7.25
2023-04-04T09:02:34.647Z,6.60
2023-04-04T09:05:07.018Z,7.15
2023-04-04T09:07:38.596Z,7.18
2023-04-04T09:10:08.747Z,7.41
2023-04-04T09:12:37.003Z,7.48
2023-04-04T09:15:04.681Z,7.55
2023-04-04T09:17:32.497Z,7.56
2023-04-04T09:20:04.035Z,7.85
2023-04-04T09:22:31.840Z,7.79
2023-04-04T09:25:00.456Z,7.21
2023-04-04T09:27:28.050Z,7.39
2023-04-04T09:29:56.190Z,7.00
2023-04-04T09:32:25.089Z,6.95
2023-04-04T09:34:52.559Z,7.22
2023-04-04T09:37:19.867Z,7.47
2023-04-04T09:39:47.463Z,7.14
2023-04-04T09:42:16.732Z,7.86
2023-04-04T09:44:44.597Z,7.91
2023-04-04T09:49:55.322Z,7.17
2023-04-04T09:52:22.580Z,7.04
2023-04-04T09:54:57.352Z,7.49
2023-04-04T09:57:26.589Z,6.96
2023-04-04T09:59:53.989Z,6.52
2023-04-04T10:02:21.491Z,6.69
2023-04-04T10:04:51.035Z,6.75
2023-04-04T10:07:23.962Z,7.45
2023-04-04T10:09:52.751Z,7.93
2023-04-04T10:12:22.897Z,8.44
2023-04-04T10:14:56.615Z,8.43
2023-04-04T10:17:25.099Z,8.98
2023-04-04T10:19:53.990Z,9.12
2023-04-04T10:22:22.078Z,8.56
2023-04-04T10:24:49.421Z,8.34
2023-04-04T10:27:16.837Z,7.92
2023-04-04T10:29:44.104Z,7.88
2023-04-04T10:32:17.405Z,7.25
2023-04-04T10:34:48.515Z,6.21
2023-04-04T10:37:20.672Z,6.65
2023-04-04T10:39:53.329Z,6.34
2023-04-04T10:42:20.804Z,6.55
2023-04-04T10:44:48.103Z,7.38
2023-04-04T10:47:19.617Z,7.73
2023-04-04T10:49:47.720Z,7.83
2023-04-04T10:52:16.033Z,7.43
2023-04-04T10:54:44.680Z,7.63
2023-04-04T10:57:12.584Z,7.25
2023-04-04T10:59:54.813Z,7.43
2023-04-04T11:02:44.465Z,7.76
2023-04-04T11:05:12.535Z,8.12
2023-04-04T11:07:40.778Z,8.46
2023-04-04T11:10:14.406Z,7.49
2023-04-04T11:12:45.028Z,6.96
2023-04-04T11:15:13.090Z,7.04
2023-04-04T11:17:45.147Z,6.23
2023-04-04T11:20:15.786Z,6.78
2023-04-04T11:22:43.819Z,6.90
2023-04-04T11:25:30.491Z,7.50
2023-04-04T11:27:58.482Z,7.32
2023-04-04T11:30:26.333Z,6.65
2023-04-04T11:33:06.671Z,6.62
2023-04-04T11:35:39.003Z,6.63
2023-04-04T11:38:13.176Z,6.89
2023-04-04T11:40:41.245Z,7.24
2023-04-04T11:43:09.826Z,7.17
2023-04-04T11:45:39.230Z,7.03
2023-04-04T11:48:09.760Z,7.68
2023-04-04T11:50:39.032Z,7.50
2023-04-04T11:53:06.859Z,7.89
2023-04-04T11:55:34.491Z,7.66
2023-04-04T11:58:12.122Z,7.85
2023-04-04T12:00:41.349Z,8.02
2023-04-04T12:03:11.654Z,7.97
2023-04-04T12:05:39.903Z,7.31
2023-04-04T12:08:08.352Z,7.90
2023-04-04T12:10:36.488Z,8.07
2023-04-04T12:13:07.144Z,7.99
2023-04-04T12:15:35.161Z,7.04
2023-04-04T12:18:02.986Z,7.35
2023-04-04T12:20:32.302Z,7.30
2023-04-04T12:22:59.767Z,7.16
2023-04-04T12:25:33.659Z,7.18
2023-04-04T12:28:02.746Z,7.67
2023-04-04T12:30:30.285Z,7.70
2023-04-04T12:32:58.197Z,7.70
2023-04-04T12:35:25.977Z,8.13
2023-04-04T12:38:07.148Z,7.99
2023-04-04T12:40:37.212Z,8.13
2023-04-04T12:43:08.747Z,8.50
2023-04-04T12:45:40.145Z,7.63
2023-04-04T12:48:12.895Z,7.47
2023-04-04T12:50:51.192Z,7.48
2023-04-04T12:53:29.009Z,7.90
2023-04-04T12:55:57.963Z,7.95
2023-04-04T12:58:25.882Z,7.71
2023-04-04T13:00:55.047Z,8.22
2023-04-04T13:03:24.327Z,8.56
2023-04-04T13:05:52.337Z,8.68
2023-04-04T13:08:19.842Z,8.16
2023-04-04T13:10:58.175Z,7.86
2023-04-04T13:13:32.788Z,7.97
2023-04-04T13:16:00.206Z,7.97
2023-04-04T13:18:32.522Z,8.18
2023-04-04T13:20:59.796Z,7.59
2023-04-04T13:23:27.130Z,7.39
2023-04-04T13:25:54.382Z,6.98
2023-04-04T13:28:23.006Z,6.61
2023-04-04T13:30:52.205Z,6.83
2023-04-04T13:33:20.014Z,6.94
2023-04-04T13:35:47.371Z,7.28
2023-04-04T13:38:14.696Z,7.67
2023-04-04T13:40:41.938Z,7.70
2023-04-04T13:43:11.209Z,7.53
2023-04-04T13:45:39.973Z,7.60
2023-04-04T13:48:07.579Z,7.20
2023-04-04T13:50:36.676Z,7.19
2023-04-04T13:53:03.968Z,6.90
2023-04-04T13:55:31.322Z,6.99
2023-04-04T13:57:58.878Z,7.13
2023-04-04T14:00:26.711Z,7.29
2023-04-04T14:02:57.204Z,7.72
2023-04-04T14:05:24.982Z,7.97
2023-04-04T14:07:52.296Z,8.22
2023-04-04T14:10:19.766Z,8.21
2023-04-04T14:12:47.301Z,8.01
2023-04-04T14:15:14.567Z,8.24
2023-04-04T14:17:41.917Z,8.04
2023-04-04T14:20:11.162Z,7.93
2023-04-04T14:22:38.496Z,8.24
2023-04-04T14:25:06.199Z,8.23
2023-04-04T14:27:33.611Z,8.08
2023-04-04T14:30:00.982Z,7.40
2023-04-04T14:32:28.547Z,7.63
2023-04-04T14:34:55.925Z,7.49
2023-04-04T14:37:24.847Z,7.46
2023-04-04T14:39:52.307Z,7.41
2023-04-04T14:42:19.610Z,7.37
2023-04-04T14:44:47.034Z,7.64
2023-04-04T14:47:14.290Z,7.90
2023-04-04T14:49:42.924Z,7.98
2023-04-04T14:52:10.361Z,8.34
2023-04-04T14:54:38.974Z,8.36
2023-04-04T14:57:06.730Z,8.29
2023-04-04T14:59:34.086Z,8.10
2023-04-04T15:02:01.773Z,8.00
2023-04-04T15:04:29.066Z,7.87
2023-04-04T15:07:00.674Z,7.83
2023-04-04T15:09:27.955Z,7.60
2023-04-04T15:11:56.918Z,7.58
2023-04-04T15:14:24.504Z,7.53
2023-04-04T15:16:52.207Z,7.68
2023-04-04T15:19:19.514Z,7.77
2023-04-04T15:21:46.981Z,7.87
2023-04-04T15:24:14.275Z,7.80
2023-04-04T15:26:41.598Z,7.67
2023-04-04T15:29:10.217Z,7.61
2023-04-04T15:31:38.138Z,7.78
2023-04-04T15:34:05.548Z,7.60
2023-04-04T15:36:34.110Z,7.60
2023-04-04T15:39:01.442Z,7.67
2023-04-04T15:41:29.080Z,7.66
2023-04-04T15:43:56.399Z,7.66
2023-04-04T15:46:25.088Z,7.79
2023-04-04T15:48:52.871Z,7.83
2023-04-04T15:51:21.023Z,7.31
2023-04-04T15:53:48.310Z,7.20
2023-04-04T15:56:15.741Z,7.25
2023-04-04T15:58:43.042Z,7.07
2023-04-04T16:01:10.346Z,7.18
2023-04-04T16:03:39.063Z,7.19
2023-04-04T16:06:12.706Z,7.34
2023-04-04T16:08:40.447Z,7.40
2023-04-04T16:11:07.753Z,7.37
2023-04-04T16:13:35.365Z,7.29
2023-04-04T16:16:02.777Z,7.32
2023-04-04T16:18:30.509Z,7.40
2023-04-04T16:20:59.120Z,7.32
2023-04-04T16:23:26.428Z,7.23
2023-04-04T16:25:54.940Z,7.11
2023-04-04T16:28:22.218Z,7.13
2023-04-04T16:30:49.533Z,7.15
2023-04-04T16:33:16.853Z,7.11
2023-04-04T16:35:44.121Z,6.63
2023-04-04T16:38:12.732Z,6.50
2023-04-04T16:40:40.416Z,6.43
2023-04-04T16:43:08.173Z,6.37
2023-04-04T16:45:35.609Z,6.39
2023-04-04T16:48:03.137Z,6.36
2023-04-04T16:50:30.499Z,6.57
2023-04-04T16:52:57.745Z,6.59
2023-04-04T16:55:27.637Z,6.68
2023-04-04T16:57:55.356Z,6.77
2023-04-04T17:00:22.699Z,6.76
2023-04-04T17:02:51.115Z,6.75
2023-04-04T17:05:18.725Z,6.65
2023-04-04T17:07:47.254Z,6.66
2023-04-04T17:10:14.886Z,6.64
2023-04-04T17:12:43.585Z,6.64
2023-04-04T17:15:11.338Z,6.57
2023-04-04T17:17:39.056Z,6.47
2023-04-04T17:20:07.296Z,6.72
2023-04-04T17:22:36.247Z,6.68
2023-04-04T17:25:03.560Z,6.84
2023-04-04T17:30:23.933Z,6.78
2023-04-04T17:32:52.327Z,6.69
2023-04-04T17:35:19.696Z,6.70
2023-04-04T17:37:46.979Z,6.84
2023-04-04T17:40:14.357Z,6.92
2023-04-04T17:42:41.629Z,6.45
2023-04-04T17:45:09.597Z,6.50
2023-04-04T17:47:38.288Z,6.57
2023-04-04T17:50:06.260Z,6.67
2023-04-04T17:52:33.729Z,6.78
2023-04-04T17:55:01.185Z,6.83
2023-04-04T17:57:28.469Z,6.92
2023-04-04T17:59:55.789Z,6.82
2023-04-04T18:02:23.072Z,6.71
2023-04-04T18:04:52.004Z,6.67
2023-04-04T18:07:19.949Z,6.61
2023-04-04T18:09:47.330Z,6.60
2023-04-04T18:12:15.633Z,6.56
2023-04-04T18:14:42.903Z,6.43
2023-04-04T18:17:10.780Z,6.45
2023-04-04T18:19:41.217Z,6.40
2023-04-04T18:22:10.138Z,6.41
2023-04-04T18:24:37.463Z,6.40
2023-04-04T18:27:07.298Z,6.26
2023-04-04T18:29:34.642Z,6.36
2023-04-04T18:32:02.647Z,6.34
2023-04-04T18:34:30.124Z,6.25
2023-04-04T18:36:57.665Z,6.26
2023-04-04T18:39:26.413Z,6.10
2023-04-04T18:41:53.767Z,6.13
2023-04-04T18:44:22.042Z,6.05
2023-04-04T18:46:49.439Z,6.12
2023-04-04T18:49:17.009Z,6.11
2023-04-04T18:51:44.722Z,5.99
2023-04-04T18:54:13.992Z,6.07
2023-04-04T18:56:42.877Z,6.04
2023-04-04T18:59:10.341Z,6.10
2023-04-04T19:01:39.148Z,6.04
2023-04-04T19:04:06.693Z,5.97
2023-04-04T19:06:34.165Z,5.78
2023-04-04T19:09:03.935Z,5.87
2023-04-04T19:11:31.619Z,6.07
2023-04-04T19:14:00.292Z,6.11
2023-04-04T19:16:27.752Z,5.84
2023-04-04T19:18:55.099Z,6.05
2023-04-04T19:21:22.436Z,6.05
2023-04-04T19:23:50.000Z,6.06
2023-04-04T19:26:18.358Z,6.09
2023-04-04T19:28:46.319Z,6.09
2023-04-04T19:31:15.860Z,6.03
2023-04-04T19:33:44.843Z,6.09
2023-04-04T19:36:12.322Z,6.03
2023-04-04T19:38:42.210Z,5.93
2023-04-04T19:41:12.674Z,5.68
2023-04-04T19:43:42.167Z,5.62
2023-04-04T19:46:10.352Z,5.53
2023-04-04T19:48:38.791Z,5.69
2023-04-04T19:51:09.355Z,5.59
2023-04-04T19:53:36.923Z,5.44
2023-04-04T19:56:06.956Z,5.62
2023-04-04T19:58:34.290Z,5.51
2023-04-04T20:01:01.610Z,5.55
2023-04-04T20:03:30.304Z,5.41
2023-04-04T20:06:11.549Z,5.40
2023-04-04T20:08:40.940Z,5.39
2023-04-04T20:11:08.715Z,5.20
2023-04-04T20:13:36.935Z,4.75
2023-04-04T20:16:05.425Z,5.01
2023-04-04T20:18:33.501Z,4.69
2023-04-04T20:21:12.348Z,4.50
2023-04-04T20:23:42.697Z,4.19
2023-04-04T20:26:13.628Z,4.51
2023-04-04T20:28:41.884Z,4.42
2023-04-04T20:31:12.254Z,4.30
2023-04-04T20:33:40.725Z,4.38
2023-04-04T20:36:13.614Z,4.45
2023-04-04T20:38:41.666Z,4.30
2023-04-04T20:41:19.581Z,4.29
2023-04-04T20:43:52.013Z,4.41
2023-04-04T20:46:20.153Z,4.67
2023-04-04T20:48:48.522Z,4.59
2023-04-04T20:51:23.985Z,4.63
2023-04-04T20:53:52.200Z,4.43
2023-04-04T20:56:37.967Z,4.46
2023-04-04T20:59:07.067Z,4.69
2023-04-04T21:01:34.631Z,4.49
2023-04-04T21:04:02.003Z,4.36
2023-04-04T21:06:31.036Z,4.58
2023-04-04T21:08:58.322Z,4.57
2023-04-04T21:11:27.169Z,4.29
2023-04-04T21:13:55.105Z,4.36
2023-04-04T21:16:24.459Z,4.58
2023-04-04T21:18:56.221Z,4.43
2023-04-04T21:21:23.519Z,4.66
2023-04-04T21:23:53.419Z,4.76
2023-04-04T21:26:25.116Z,4.58
2023-04-04T21:28:52.504Z,4.21
2023-04-04T21:31:22.041Z,4.38
2023-04-04T21:33:50.480Z,4.26
2023-04-04T21:36:19.258Z,4.48
2023-04-04T21:38:46.818Z,4.54
2023-04-04T21:41:23.101Z,4.53
2023-04-04T21:43:50.536Z,4.51
2023-04-04T21:46:17.985Z,4.53
2023-04-04T21:48:45.280Z,4.28
2023-04-04T21:51:12.658Z,4.42
2023-04-04T21:53:39.949Z,4.49
2023-04-04T21:56:07.318Z,4.24
2023-04-04T21:58:36.136Z,4.05
2023-04-04T22:01:03.503Z,4.00
2023-04-04T22:03:30.962Z,4.17
2023-04-04T22:05:58.373Z,4.19
2023-04-04T22:08:25.845Z,4.39
2023-04-04T22:10:53.188Z,4.57
2023-04-04T22:13:22.465Z,4.47
2023-04-04T22:15:52.349Z,4.48
2023-04-04T22:18:29.646Z,4.55
2023-04-04T22:20:57.309Z,4.30
2023-04-04T22:23:25.328Z,4.33
2023-04-04T22:25:52.573Z,4.23
2023-04-04T22:28:24.657Z,4.36
2023-04-04T22:30:53.290Z,4.46
2023-04-04T22:33:20.691Z,4.53
2023-04-04T22:35:48.065Z,4.32
2023-04-04T22:38:15.433Z,4.39
2023-04-04T22:40:42.953Z,4.28
2023-04-04T22:43:10.657Z,4.45
2023-04-04T22:45:38.053Z,4.49
2023-04-04T22:48:06.852Z,4.35
2023-04-04T22:50:35.370Z,4.27
2023-04-04T22:53:03.461Z,4.12
2023-04-04T22:55:31.215Z,4.09
2023-04-04T22:57:58.475Z,4.35
2023-04-04T23:00:26.093Z,4.27
2023-04-04T23:02:53.398Z,4.06
2023-04-04T23:05:22.196Z,4.10
2023-04-04T23:07:52.525Z,4.11
2023-04-04T23:10:20.245Z,4.10
2023-04-04T23:12:48.652Z,4.00
2023-04-04T23:15:16.179Z,3.88
2023-04-04T23:17:44.213Z,3.94
2023-04-04T23:20:11.645Z,3.98
2023-04-04T23:22:40.514Z,3.92
2023-04-04T23:25:08.091Z,3.84
2023-04-04T23:27:35.405Z,4.00
2023-04-04T23:30:05.034Z,4.05
2023-04-04T23:32:32.588Z,4.00
2023-04-04T23:34:59.907Z,3.92
2023-04-04T23:37:27.354Z,4.10
2023-04-04T23:39:56.253Z,3.98
2023-04-04T23:42:23.871Z,3.98
2023-04-04T23:44:51.259Z,3.93
2023-04-04T23:47:18.882Z,4.03
2023-04-04T23:49:46.648Z,3.85
2023-04-04T23:52:13.967Z,3.78
2023-04-04T23:54:41.226Z,3.78
2023-04-04T23:57:09.919Z,3.72
2023-04-04T23:59:37.198Z,3.63
